Time;durP1;ratioP1;P1;durP2;ratioP2;P2;SDS_P1;SDS_P2;PMS_P1;PMS_P2;Temp;Humidity;BMP_temperature;BMP_pressure;BME280_temperature;BME280_humidity;BME280_pressure;Samples;Min_cycle;Max_cycle;Signal;HPM_P1;HPM_P2
2022/09/29 00:00:30;;;;;;;7.40;5.85;;;7.60;99.90;;;;;;5038836;28;20045;-76
2022/09/29 00:02:56;;;;;;;6.88;6.18;;;7.30;99.90;;;;;;5039938;28;20033;-73
2022/09/29 00:05:22;;;;;;;8.45;5.65;;;7.60;99.90;;;;;;5028696;28;20171;-76
2022/09/29 00:07:48;;;;;;;5.20;4.70;;;7.20;99.90;;;;;;5039815;28;20040;-77
2022/09/29 00:10:13;;;;;;;5.82;5.22;;;7.20;99.90;;;;;;5040239;28;20128;-76
2022/09/29 00:12:39;;;;;;;6.63;5.45;;;7.40;99.90;;;;;;5041591;28;20423;-77
2022/09/29 00:15:06;;;;;;;6.38;5.78;;;7.40;99.90;;;;;;5039135;28;20190;-76
2022/09/29 00:17:31;;;;;;;5.65;4.95;;;7.10;99.90;;;;;;5038276;28;20056;-74
2022/09/29 00:19:57;;;;;;;7.22;5.78;;;7.40;99.90;;;;;;5040406;28;20380;-77
2022/09/29 00:22:23;;;;;;;10.75;6.70;;;7.30;99.90;;;;;;5038711;28;20110;-77
2022/09/29 00:24:49;;;;;;;7.43;5.05;;;7.50;99.90;;;;;;5040763;28;20052;-74
2022/09/29 00:27:18;;;;;;;12.18;6.57;;;7.50;99.90;;;;;;5042266;28;20076;-75
2022/09/29 00:29:44;;;;;;;8.95;7.00;;;7.40;99.90;;;;;;5043081;28;20130;-76
2022/09/29 00:32:10;;;;;;;6.57;5.05;;;7.40;99.90;;;;;;5041149;28;20515;-75
2022/09/29 00:34:36;;;;;;;4.60;4.20;;;7.30;99.90;;;;;;5041886;28;20094;-76
2022/09/29 00:37:02;;;;;;;4.93;4.45;;;6.90;99.90;;;;;;5044418;28;20041;-73
2022/09/29 00:39:28;;;;;;;5.30;4.78;;;6.90;99.90;;;;;;5042135;28;20064;-74
2022/09/29 00:41:56;;;;;;;7.43;5.35;;;7.00;99.90;;;;;;5044754;28;20056;-77
2022/09/29 00:44:22;;;;;;;6.07;5.47;;;7.30;99.90;;;;;;5042416;28;20060;-76
2022/09/29 00:46:55;;;;;;;7.93;5.72;;;6.90;99.90;;;;;;4505646;22;21878;-77
2022/09/29 00:49:49;;;;;;;8.13;5.18;;;6.90;99.90;;;;;;5036572;28;20068;-75
2022/09/29 00:52:25;;;;;;;7.28;5.13;;;7.00;99.90;;;;;;5045831;28;20041;-76
2022/09/29 00:54:57;;;;;;;6.38;5.50;;;7.20;99.90;;;;;;5044723;28;20063;-75
2022/09/29 00:57:30;;;;;;;5.40;4.90;;;7.10;99.90;;;;;;5037851;28;20049;-75
2022/09/29 01:00:09;;;;;;;5.95;4.75;;;6.90;99.90;;;;;;5047354;28;20465;-75
2022/09/29 01:02:39;;;;;;;6.60;5.93;;;7.10;99.90;;;;;;5029131;28;20080;-76
2022/09/29 01:05:11;;;;;;;6.68;5.47;;;7.10;99.90;;;;;;5046709;28;20033;-76
2022/09/29 01:07:37;;;;;;;5.28;4.75;;;7.10;99.90;;;;;;5044490;28;20483;-75
2022/09/29 01:10:04;;;;;;;7.20;5.75;;;6.90;99.90;;;;;;5042572;28;20481;-77
2022/09/29 01:12:30;;;;;;;22.42;7.07;;;7.00;99.90;;;;;;5047323;28;20122;-76
2022/09/29 01:14:56;;;;;;;46.30;6.78;;;6.60;99.90;;;;;;5046386;28;20044;-77
2022/09/29 01:17:22;;;;;;;90.88;8.45;;;6.40;99.90;;;;;;5045414;28;20037;-76
2022/09/29 01:19:59;;;;;;;129.10;9.93;;;6.40;99.90;;;;;;5013821;28;20075;-76
2022/09/29 01:22:56;;;;;;;70.57;8.15;;;6.30;99.90;;;;;;5014505;28;20044;-76
2022/09/29 01:25:46;;;;;;;18.65;5.97;;;6.60;99.90;;;;;;5042858;28;20403;-77
2022/09/29 01:28:24;;;;;;;36.80;6.32;;;6.70;99.90;;;;;;5044121;28;20167;-77
2022/09/29 01:31:23;;;;;;;78.60;9.00;;;6.50;99.90;;;;;;5045442;28;20044;-73
2022/09/29 01:34:13;;;;;;;40.63;8.57;;;6.60;99.90;;;;;;5020425;28;20385;-77
2022/09/29 01:36:55;;;;;;;36.47;6.40;;;6.20;99.90;;;;;;5037485;28;20045;-76
2022/09/29 01:39:35;;;;;;;49.67;6.28;;;6.30;99.90;;;;;;5044107;28;20052;-74
2022/09/29 01:42:14;;;;;;;58.60;7.28;;;6.30;99.90;;;;;;5032365;28;20057;-76
2022/09/29 01:45:00;;;;;;;26.40;5.95;;;6.40;99.90;;;;;;5034605;28;20124;-77
2022/09/29 01:47:36;;;;;;;19.38;6.93;;;6.40;99.90;;;;;;5029755;28;20049;-76
2022/09/29 01:50:10;;;;;;;68.78;8.70;;;6.80;99.90;;;;;;5035704;28;20071;-77
2022/09/29 01:52:48;;;;;;;46.95;7.45;;;6.80;99.90;;;;;;5046156;28;20730;-77
2022/09/29 01:55:21;;;;;;;38.90;6.13;;;6.40;99.90;;;;;;5036620;28;20059;-77
2022/09/29 01:57:53;;;;;;;46.88;7.43;;;6.30;99.90;;;;;;5044613;28;20122;-75
2022/09/29 02:00:22;;;;;;;27.80;5.70;;;6.60;99.90;;;;;;5019078;28;20105;-75
2022/09/29 02:02:59;;;;;;;45.72;7.72;;;6.70;99.90;;;;;;5028754;28;20383;-76
2022/09/29 02:05:31;;;;;;;35.45;5.80;;;6.40;99.90;;;;;;5032388;28;20049;-77
2022/09/29 02:08:04;;;;;;;16.70;5.78;;;6.50;99.90;;;;;;5009946;28;20040;-76
2022/09/29 02:10:39;;;;;;;20.50;5.57;;;6.40;99.90;;;;;;5009686;28;20567;-75
2022/09/29 02:13:08;;;;;;;48.97;7.35;;;6.30;99.90;;;;;;5026268;28;20057;-74
2022/09/29 02:15:38;;;;;;;44.97;6.53;;;6.30;99.90;;;;;;5043885;28;20087;-76
2022/09/29 02:18:13;;;;;;;66.32;6.82;;;6.70;99.90;;;;;;5043246;28;20326;-78
2022/09/29 02:20:39;;;;;;;30.52;6.53;;;6.50;99.90;;;;;;5043486;28;20045;-73
2022/09/29 02:23:04;;;;;;;33.53;6.45;;;6.40;99.90;;;;;;5043467;28;20045;-76
2022/09/29 02:25:36;;;;;;;82.35;9.45;;;6.40;99.90;;;;;;5032636;28;20040;-77
2022/09/29 02:28:03;;;;;;;51.65;6.60;;;6.70;99.90;;;;;;5042893;28;20079;-75
2022/09/29 02:30:28;;;;;;;31.35;6.28;;;6.60;99.90;;;;;;5043190;28;20037;-74
2022/09/29 02:32:54;;;;;;;29.60;8.10;;;6.60;99.90;;;;;;5025090;28;20403;-75
2022/09/29 02:35:20;;;;;;;36.90;6.65;;;6.60;99.90;;;;;;5044329;28;20049;-74
2022/09/29 02:38:03;;;;;;;35.90;6.43;;;6.20;99.90;;;;;;5042824;28;20025;-76
2022/09/29 02:40:44;;;;;;;37.80;7.32;;;6.50;99.90;;;;;;5042341;28;20098;-73
2022/09/29 02:43:44;;;;;;;51.67;6.88;;;6.30;99.90;;;;;;5026487;28;20507;-75
2022/09/29 02:46:19;;;;;;;6.93;4.70;;;6.10;99.90;;;;;;5044202;28;20041;-73
2022/09/29 02:49:03;;;;;;;6.18;4.97;;;6.00;99.90;;;;;;5024408;28;20057;-75
2022/09/29 02:51:33;;;;;;;11.32;5.57;;;6.20;99.90;;;;;;5037904;28;20045;-74
2022/09/29 02:54:26;;;;;;;10.30;5.72;;;5.90;99.90;;;;;;5036142;28;20068;-76
2022/09/29 02:57:30;;;;;;;15.85;5.18;;;6.00;99.90;;;;;;5040603;28;20396;-74
2022/09/29 03:00:10;;;;;;;28.33;5.45;;;5.90;99.90;;;;;;4989682;28;20098;-75
2022/09/29 03:02:37;;;;;;;;;;;6.20;99.90;;;;;;5042341;28;20051;-77
2022/09/29 03:05:12;;;;;;;40.30;5.47;;;6.10;99.90;;;;;;5034674;28;20294;-76
2022/09/29 03:07:38;;;;;;;21.60;5.75;;;6.20;99.90;;;;;;5040354;28;20057;-74
2022/09/29 03:10:06;;;;;;;12.50;5.13;;;6.00;99.90;;;;;;5019181;28;20087;-77
2022/09/29 03:12:31;;;;;;;8.05;4.65;;;6.20;99.90;;;;;;5043266;28;20430;-75
2022/09/29 03:14:57;;;;;;;6.78;4.80;;;6.10;99.90;;;;;;5039351;28;20041;-74
2022/09/29 03:17:23;;;;;;;6.88;4.40;;;6.10;99.90;;;;;;5039292;28;20103;-75
2022/09/29 03:19:48;;;;;;;4.80;4.32;;;6.20;99.90;;;;;;5044530;28;20045;-74
2022/09/29 03:22:14;;;;;;;5.10;4.60;;;6.10;99.90;;;;;;5037992;28;20116;-77
2022/09/29 03:24:40;;;;;;;7.28;5.65;;;6.00;99.90;;;;;;5029752;28;20032;-71
2022/09/29 03:27:08;;;;;;;20.35;5.15;;;5.90;99.90;;;;;;5042270;28;20434;-76
2022/09/29 03:29:34;;;;;;;25.52;4.75;;;5.60;99.90;;;;;;5043598;28;20033;-75
2022/09/29 03:32:01;;;;;;;57.90;6.25;;;5.90;99.90;;;;;;5039976;28;20294;-73
2022/09/29 03:34:26;;;;;;;54.95;6.85;;;5.80;99.90;;;;;;5024181;28;20056;-74
2022/09/29 03:36:52;;;;;;;13.55;3.80;;;5.20;99.90;;;;;;5009062;28;20037;-73
2022/09/29 03:39:17;;;;;;;19.92;4.50;;;5.60;99.90;;;;;;5041584;28;20251;-76
2022/09/29 03:41:43;;;;;;;35.10;5.72;;;5.30;99.90;;;;;;5020224;28;20076;-75
2022/09/29 03:44:09;;;;;;;10.63;4.25;;;5.60;99.90;;;;;;5036762;28;20049;-73
2022/09/29 03:46:35;;;;;;;49.00;6.47;;;5.70;99.90;;;;;;5034726;28;20048;-76
2022/09/29 03:49:00;;;;;;;36.00;5.90;;;5.20;99.90;;;;;;5043618;28;20060;-73
2022/09/29 03:51:26;;;;;;;44.63;6.18;;;5.00;99.90;;;;;;5036771;28;20044;-76
2022/09/29 03:53:53;;;;;;;58.58;7.05;;;5.30;99.90;;;;;;5009475;28;20122;-75
2022/09/29 03:56:19;;;;;;;24.13;4.53;;;5.40;99.90;;;;;;5041491;28;20449;-77
2022/09/29 03:58:44;;;;;;;23.05;5.30;;;5.70;99.90;;;;;;5042579;28;20041;-75
2022/09/29 04:01:10;;;;;;;51.45;7.35;;;5.70;99.90;;;;;;5042125;28;20044;-76
2022/09/29 04:03:35;;;;;;;37.63;4.90;;;5.70;99.90;;;;;;5044969;28;20526;-75
2022/09/29 04:06:01;;;;;;;47.05;6.80;;;5.60;99.90;;;;;;5034000;28;20124;-75
2022/09/29 04:08:27;;;;;;;35.97;5.63;;;5.50;99.90;;;;;;5046725;28;20395;-75
2022/09/29 04:10:52;;;;;;;33.50;7.05;;;5.70;99.90;;;;;;5029275;28;20522;-74
2022/09/29 04:13:18;;;;;;;78.10;8.93;;;5.40;99.90;;;;;;5044329;28;20898;-77
2022/09/29 04:15:43;;;;;;;68.43;8.55;;;5.20;99.90;;;;;;5046496;28;20041;-76
2022/09/29 04:18:09;;;;;;;66.93;9.18;;;5.20;99.90;;;;;;5044743;28;20041;-76
2022/09/29 04:20:37;;;;;;;25.23;6.15;;;5.40;99.90;;;;;;5046372;28;20044;-76
2022/09/29 04:23:03;;;;;;;46.25;9.50;;;5.30;99.90;;;;;;5040446;28;20045;-73
2022/09/29 04:25:29;;;;;;;22.95;6.75;;;5.40;99.90;;;;;;5022027;28;20044;-77
2022/09/29 04:27:54;;;;;;;19.95;7.25;;;5.50;99.90;;;;;;5027209;28;20052;-76
2022/09/29 04:30:20;;;;;;;16.83;4.93;;;5.60;99.90;;;;;;5029389;28;20052;-75
2022/09/29 04:32:46;;;;;;;7.30;6.25;;;5.70;99.90;;;;;;5040827;28;20036;-76
2022/09/29 04:35:11;;;;;;;15.75;5.85;;;5.70;99.90;;;;;;4993508;28;20518;-76
2022/09/29 04:37:37;;;;;;;13.18;6.13;;;5.80;99.90;;;;;;5038465;28;20477;-73
2022/09/29 04:40:04;;;;;;;28.60;6.70;;;5.70;99.90;;;;;;5012369;28;20049;-74
2022/09/29 04:42:29;;;;;;;12.60;5.22;;;5.20;99.90;;;;;;5042417;28;20162;-73
2022/09/29 04:44:55;;;;;;;7.40;5.25;;;5.50;99.90;;;;;;5046150;28;20495;-75
2022/09/29 04:47:21;;;;;;;17.58;5.57;;;5.20;99.90;;;;;;5027030;28;20056;-74
2022/09/29 04:49:46;;;;;;;8.75;6.18;;;5.70;99.90;;;;;;5046143;28;20515;-75
2022/09/29 04:52:13;;;;;;;6.10;5.50;;;5.60;99.90;;;;;;5042310;28;20045;-76
2022/09/29 04:54:39;;;;;;;9.57;6.15;;;5.50;99.90;;;;;;5045879;28;20080;-74
2022/09/29 04:57:05;;;;;;;7.13;5.45;;;5.50;99.90;;;;;;5013122;28;20150;-73
2022/09/29 04:59:32;;;;;;;7.95;6.82;;;5.30;99.90;;;;;;5036221;28;20389;-76
2022/09/29 05:01:58;;;;;;;6.38;5.60;;;5.10;99.90;;;;;;5003206;28;20033;-73
2022/09/29 05:04:23;;;;;;;6.68;6.00;;;5.50;99.90;;;;;;5026194;28;20052;-74
2022/09/29 05:06:49;;;;;;;8.10;6.47;;;5.60;99.90;;;;;;5027497;28;20053;-72
2022/09/29 05:09:15;;;;;;;6.30;5.70;;;5.40;99.90;;;;;;5026609;28;20049;-74
2022/09/29 05:11:40;;;;;;;5.25;4.80;;;5.10;99.90;;;;;;5036702;28;20111;-75
2022/09/29 05:14:06;;;;;;;6.60;5.90;;;5.40;99.90;;;;;;5042746;28;20534;-72
2022/09/29 05:16:32;;;;;;;6.65;5.80;;;5.20;99.90;;;;;;5042177;28;20048;-74
2022/09/29 05:18:58;;;;;;;5.88;5.25;;;5.20;99.90;;;;;;5040162;28;20053;-73
2022/09/29 05:21:24;;;;;;;6.30;4.60;;;5.40;99.90;;;;;;5007288;28;20073;-74
2022/09/29 05:23:49;;;;;;;6.50;5.88;;;5.40;99.90;;;;;;5044158;28;20103;-74
2022/09/29 05:26:15;;;;;;;6.63;5.50;;;5.20;99.90;;;;;;5045198;28;20040;-74
2022/09/29 05:28:46;;;;;;;7.75;6.43;;;5.00;99.90;;;;;;5044478;28;20049;-75
2022/09/29 05:31:13;;;;;;;25.55;7.25;;;5.20;99.90;;;;;;5042488;28;20076;-76
2022/09/29 05:33:39;;;;;;;32.08;7.30;;;4.90;99.90;;;;;;5040186;28;21414;-72
2022/09/29 05:36:07;;;;;;;6.50;5.88;;;5.20;99.90;;;;;;5038259;28;20042;-76
2022/09/29 05:38:34;;;;;;;6.13;5.00;;;5.40;99.90;;;;;;5036267;28;20037;-77
2022/09/29 05:41:05;;;;;;;7.15;6.45;;;5.40;99.90;;;;;;5043433;28;20037;-75
2022/09/29 05:43:30;;;;;;;5.88;5.38;;;5.40;99.90;;;;;;5039398;28;20048;-75
2022/09/29 05:46:04;;;;;;;6.88;5.93;;;5.00;99.90;;;;;;5044406;28;20037;-76
2022/09/29 05:48:30;;;;;;;7.90;6.32;;;5.30;99.90;;;;;;5043778;28;20502;-73
2022/09/29 05:50:57;;;;;;;8.70;6.03;;;5.00;99.90;;;;;;5035498;28;20076;-73
2022/09/29 05:53:23;;;;;;;7.75;6.18;;;4.80;99.90;;;;;;5024902;28;20052;-74
2022/09/29 05:55:49;;;;;;;7.07;6.38;;;5.30;99.90;;;;;;5029699;28;20048;-75
2022/09/29 05:58:15;;;;;;;8.40;6.28;;;5.30;99.90;;;;;;5017312;28;20055;-75
2022/09/29 06:00:41;;;;;;;6.25;5.65;;;5.10;99.90;;;;;;5011914;28;20047;-74
2022/09/29 06:03:07;;;;;;;6.35;5.75;;;5.20;99.90;;;;;;5024613;28;20431;-75
2022/09/29 06:05:37;;;;;;;7.55;6.70;;;5.00;99.90;;;;;;5025540;28;20045;-77
2022/09/29 06:08:03;;;;;;;8.50;6.75;;;5.30;99.90;;;;;;5044982;28;20040;-74
2022/09/29 06:10:29;;;;;;;6.88;6.13;;;4.90;99.90;;;;;;5043598;28;20039;-74
2022/09/29 06:12:55;;;;;;;8.07;6.40;;;5.50;99.90;;;;;;5044665;28;20053;-73
2022/09/29 06:15:22;;;;;;;14.15;8.20;;;5.60;99.90;;;;;;5044408;28;20032;-76
2022/09/29 06:17:54;;;;;;;6.88;6.18;;;5.30;99.90;;;;;;5033746;28;20052;-75
2022/09/29 06:20:20;;;;;;;9.73;7.07;;;5.20;99.90;;;;;;5040188;28;20084;-73
2022/09/29 06:22:46;;;;;;;7.00;6.30;;;5.30;99.90;;;;;;5027193;28;20080;-74
2022/09/29 06:25:13;;;;;;;7.20;6.15;;;5.60;99.90;;;;;;5043155;28;20114;-75
2022/09/29 06:27:39;;;;;;;8.90;6.80;;;5.40;99.90;;;;;;5044131;28;20045;-75
2022/09/29 06:30:05;;;;;;;7.00;6.30;;;5.90;99.90;;;;;;5038677;28;20111;-72
2022/09/29 06:32:33;;;;;;;8.07;7.28;;;5.50;99.90;;;;;;5023194;28;20115;-75
2022/09/29 06:37:45;;;;;;;12.70;8.82;;;5.50;99.90;;;;;;5043442;28;20419;-72
2022/09/29 06:40:11;;;;;;;9.20;7.35;;;6.10;99.90;;;;;;5043851;28;20060;-74
2022/09/29 06:42:37;;;;;;;9.25;8.35;;;6.00;99.90;;;;;;5043930;28;20415;-77
2022/09/29 06:45:03;;;;;;;8.82;7.93;;;5.90;99.90;;;;;;5026170;28;20045;-76
2022/09/29 06:47:29;;;;;;;12.80;9.70;;;6.20;99.90;;;;;;5033243;28;20068;-75
2022/09/29 06:49:57;;;;;;;9.30;8.23;;;6.00;99.90;;;;;;5026153;28;20076;-76
2022/09/29 06:52:22;;;;;;;9.15;8.25;;;6.30;99.90;;;;;;5036471;28;20056;-74
2022/09/29 06:54:48;;;;;;;8.93;7.85;;;5.90;99.90;;;;;;5043581;28;20613;-78
2022/09/29 06:57:13;;;;;;;9.68;8.77;;;6.10;99.90;;;;;;5036656;28;20055;-76
2022/09/29 06:59:39;;;;;;;10.13;9.00;;;6.20;99.90;;;;;;5039311;28;20041;-73
2022/09/29 07:02:05;;;;;;;10.93;9.75;;;6.50;99.90;;;;;;5037923;28;20056;-76
2022/09/29 07:04:31;;;;;;;11.02;9.73;;;6.20;99.90;;;;;;5039963;28;20045;-76
2022/09/29 07:06:56;;;;;;;11.70;10.50;;;6.60;99.90;;;;;;5041909;28;20094;-77
2022/09/29 07:09:22;;;;;;;10.57;9.48;;;6.50;99.90;;;;;;5019157;28;20117;-77
2022/09/29 07:11:50;;;;;;;11.18;10.02;;;6.50;99.90;;;;;;5021479;28;20528;-77
2022/09/29 07:14:21;;;;;;;10.65;9.55;;;6.50;99.90;;;;;;5041818;28;20060;-74
2022/09/29 07:16:47;;;;;;;12.77;11.50;;;6.50;99.90;;;;;;5030554;28;20053;-76
2022/09/29 07:19:14;;;;;;;12.13;10.48;;;6.90;99.90;;;;;;5033407;28;20426;-76
2022/09/29 07:21:39;;;;;;;10.70;9.70;;;7.10;99.90;;;;;;5039525;28;20041;-76
2022/09/29 07:24:06;;;;;;;10.38;9.38;;;6.70;99.90;;;;;;5063822;28;20051;-75
2022/09/29 07:26:31;;;;;;;11.68;9.70;;;6.90;99.90;;;;;;5045633;28;20115;-74
2022/09/29 07:28:57;;;;;;;10.65;8.75;;;7.40;99.90;;;;;;5036268;28;20471;-76
2022/09/29 07:31:23;;;;;;;11.65;10.48;;;7.10;99.90;;;;;;5022728;28;20040;-71
2022/09/29 07:33:49;;;;;;;12.65;11.25;;;7.20;99.90;;;;;;5023970;28;20100;-72
2022/09/29 07:36:18;;;;;;;15.38;11.50;;;7.70;99.90;;;;;;5024212;28;20052;-77
2022/09/29 07:38:50;;;;;;;14.32;12.45;;;7.40;99.90;;;;;;5041878;28;20053;-73
2022/09/29 07:41:18;;;;;;;13.45;11.52;;;7.50;99.90;;;;;;5046815;28;20385;-76
2022/09/29 07:43:44;;;;;;;13.55;11.85;;;8.00;99.90;;;;;;5046189;28;20040;-76
2022/09/29 07:46:10;;;;;;;14.23;11.90;;;8.10;99.90;;;;;;5046654;28;20049;-75
2022/09/29 07:48:37;;;;;;;18.75;14.65;;;7.80;99.90;;;;;;5047854;28;20725;-77
2022/09/29 07:51:09;;;;;;;12.80;11.40;;;8.30;99.90;;;;;;5047024;28;20091;-77
2022/09/29 07:53:35;;;;;;;18.00;13.05;;;8.20;99.90;;;;;;5046397;28;20041;-77
2022/09/29 07:56:21;;;;;;;17.08;14.10;;;8.50;99.90;;;;;;5037928;28;20049;-77
2022/09/29 07:58:48;;;;;;;15.77;14.07;;;8.70;99.90;;;;;;5035669;28;20410;-77
2022/09/29 08:01:15;;;;;;;16.70;12.88;;;8.80;99.90;;;;;;5044680;28;20049;-77
2022/09/29 08:03:48;;;;;;;16.50;14.77;;;8.90;99.90;;;;;;5047622;28;20045;-73
2022/09/29 08:06:14;;;;;;;14.18;12.88;;;8.60;99.90;;;;;;5026431;28;20064;-77
2022/09/29 08:08:40;;;;;;;15.68;13.57;;;8.80;99.90;;;;;;5046694;28;20080;-77
2022/09/29 08:11:12;;;;;;;19.98;15.45;;;9.20;99.90;;;;;;5046135;28;20106;-75
2022/09/29 08:13:38;;;;;;;16.25;13.52;;;9.10;99.90;;;;;;5046135;28;20060;-73
2022/09/29 08:16:06;;;;;;;23.67;13.40;;;9.30;99.90;;;;;;5043881;28;20430;-78
2022/09/29 08:18:33;;;;;;;17.42;12.50;;;9.10;99.90;;;;;;5044171;28;20074;-77
2022/09/29 08:21:00;;;;;;;15.38;13.77;;;9.50;99.90;;;;;;5046014;28;20090;-75
2022/09/29 08:23:26;;;;;;;17.73;14.27;;;9.60;99.90;;;;;;5046839;28;20051;-75
2022/09/29 08:26:08;;;;;;;16.48;13.25;;;9.70;99.90;;;;;;5045278;28;20045;-78
2022/09/29 08:28:36;;;;;;;15.98;13.15;;;9.80;99.90;;;;;;5046615;28;20441;-78
2022/09/29 08:31:03;;;;;;;20.58;16.77;;;9.90;99.90;;;;;;5009002;28;20080;-73
2022/09/29 08:33:29;;;;;;;17.40;15.18;;;9.80;99.90;;;;;;5045858;28;20522;-73
2022/09/29 08:35:57;;;;;;;20.08;15.10;;;9.90;99.90;;;;;;5043686;28;20048;-74
2022/09/29 08:38:23;;;;;;;19.95;17.58;;;10.30;99.90;;;;;;5046932;28;20037;-72
2022/09/29 08:40:49;;;;;;;27.27;17.55;;;10.40;99.90;;;;;;5046119;28;20056;-75
2022/09/29 08:43:21;;;;;;;18.75;15.82;;;10.30;99.90;;;;;;5026866;28;20125;-76
2022/09/29 08:45:56;;;;;;;18.70;15.90;;;10.60;99.90;;;;;;5035347;28;20049;-77
2022/09/29 08:48:24;;;;;;;24.15;17.95;;;10.50;99.90;;;;;;5025658;28;20442;-77
2022/09/29 08:50:52;;;;;;;22.45;18.02;;;10.80;99.90;;;;;;5031911;28;20053;-77
2022/09/29 08:53:20;;;;;;;22.90;18.15;;;11.10;99.90;;;;;;5042825;28;20658;-78
2022/09/29 08:55:54;;;;;;;21.05;16.35;;;11.10;99.90;;;;;;5047246;28;20056;-78
2022/09/29 08:58:20;;;;;;;21.33;17.25;;;11.20;99.90;;;;;;5045337;28;20052;-78
2022/09/29 09:01:01;;;;;;;24.33;18.50;;;11.30;99.90;;;;;;5045631;28;20403;-78
2022/09/29 09:03:56;;;;;;;17.83;15.93;;;11.50;99.90;;;;;;5031500;28;20120;-77
2022/09/29 09:06:58;;;;;;;17.77;14.40;;;11.30;99.90;;;;;;5027285;28;20075;-78
2022/09/29 09:10:02;;;;;;;19.05;14.93;;;11.50;99.90;;;;;;5041525;28;20062;-73
2022/09/29 09:13:05;;;;;;;15.15;11.98;;;11.70;99.90;;;;;;5039410;28;20055;-73
2022/09/29 09:15:56;;;;;;;13.25;11.40;;;11.40;99.90;;;;;;4999754;28;20080;-77
2022/09/29 09:18:33;;;;;;;;;;;11.60;99.90;;;;;;5046520;28;20049;-74
2022/09/29 09:21:09;;;;;;;11.95;9.80;;;11.50;99.90;;;;;;5033013;28;19921;-72
2022/09/29 09:23:47;;;;;;;10.10;9.05;;;11.80;99.90;;;;;;5007810;28;20469;-77
2022/09/29 09:26:13;;;;;;;16.08;11.07;;;11.80;99.90;;;;;;5033091;28;20045;-77
2022/09/29 09:28:52;;;;;;;8.80;7.70;;;12.10;99.90;;;;;;5041137;28;20049;-76
2022/09/29 09:31:26;;;;;;;17.27;9.13;;;12.20;99.90;;;;;;5025479;28;20049;-77
2022/09/29 09:34:15;;;;;;;9.40;7.70;;;12.10;99.90;;;;;;5045333;28;20053;-77
2022/09/29 09:37:05;;;;;;;10.05;6.28;;;12.40;99.90;;;;;;5023826;28;20048;-78
2022/09/29 09:39:33;;;;;;;11.43;6.32;;;12.20;99.90;;;;;;4990161;28;20080;-74
2022/09/29 09:42:05;;;;;;;7.03;6.32;;;12.20;99.90;;;;;;5007755;28;20451;-72
2022/09/29 09:44:50;;;;;;;7.22;6.03;;;12.40;99.90;;;;;;5033195;28;20045;-77
2022/09/29 09:47:28;;;;;;;9.32;6.88;;;12.60;99.90;;;;;;5025790;28;20061;-72
2022/09/29 09:50:13;;;;;;;7.72;6.40;;;12.70;99.90;;;;;;5025097;28;20042;-77
2022/09/29 09:52:51;;;;;;;9.75;7.38;;;12.80;99.90;;;;;;5007282;28;20085;-77
2022/09/29 09:55:26;;;;;;;8.63;5.93;;;12.80;99.90;;;;;;5023160;28;20049;-77
2022/09/29 09:58:29;;;;;;;7.28;5.07;;;12.80;99.90;;;;;;5043589;28;20049;-77
2022/09/29 10:01:01;;;;;;;6.82;5.90;;;12.80;99.90;;;;;;5044523;28;20124;-75
2022/09/29 10:03:28;;;;;;;3.97;3.60;;;12.80;99.90;;;;;;5043469;28;20040;-75
2022/09/29 10:05:54;;;;;;;4.97;4.20;;;12.70;99.90;;;;;;4649744;22;20061;-76
2022/09/29 10:08:38;;;;;;;5.45;4.47;;;12.90;99.90;;;;;;5018842;28;20053;-75
2022/09/29 10:11:17;;;;;;;6.07;4.45;;;12.90;99.90;;;;;;5010812;28;20037;-77
2022/09/29 10:13:44;;;;;;;3.47;3.17;;;13.10;99.90;;;;;;5011310;28;20053;-78
2022/09/29 10:16:15;;;;;;;3.88;3.25;;;13.10;99.90;;;;;;5013581;28;20060;-75
2022/09/29 10:18:45;;;;;;;4.20;3.80;;;13.20;99.90;;;;;;5004851;28;20077;-74
2022/09/29 10:21:43;;;;;;;3.42;3.03;;;13.20;99.90;;;;;;5027354;28;20048;-74
2022/09/29 10:24:21;;;;;;;3.88;2.90;;;13.30;99.90;;;;;;5024445;28;20119;-79
2022/09/29 10:26:50;;;;;;;3.75;2.33;;;13.30;99.90;;;;;;5019992;28;20033;-77
2022/09/29 10:29:37;;;;;;;4.13;2.78;;;13.30;99.90;;;;;;5016666;28;20139;-74
2022/09/29 10:32:37;;;;;;;3.20;2.05;;;13.40;99.90;;;;;;5023280;28;20045;-76
2022/09/29 10:35:28;;;;;;;4.75;3.60;;;13.50;99.90;;;;;;5024188;28;20102;-75
2022/09/29 10:38:05;;;;;;;4.15;3.75;;;13.50;99.90;;;;;;5003122;28;20050;-75
2022/09/29 10:40:31;;;;;;;5.18;3.92;;;13.50;99.90;;;;;;5007502;28;20061;-76
2022/09/29 10:42:57;;;;;;;4.45;3.83;;;13.70;99.90;;;;;;5016630;28;20045;-75
2022/09/29 10:45:28;;;;;;;6.20;3.05;;;13.90;99.90;;;;;;5018417;28;20038;-73
2022/09/29 10:47:57;;;;;;;6.05;3.22;;;14.00;99.90;;;;;;5008184;28;20432;-75
2022/09/29 10:50:31;;;;;;;3.25;2.88;;;14.00;99.90;;;;;;4987064;28;20045;-73
2022/09/29 10:53:14;;;;;;;3.65;2.75;;;13.90;99.90;;;;;;5004005;28;20077;-76
2022/09/29 10:55:50;;;;;;;4.63;2.83;;;14.00;99.90;;;;;;5006963;28;20053;-76
2022/09/29 10:58:29;;;;;;;4.82;2.17;;;14.10;99.90;;;;;;5016212;28;20044;-75
2022/09/29 11:01:15;;;;;;;2.70;1.60;;;14.20;99.90;;;;;;5005578;28;20049;-75
2022/09/29 11:04:00;;;;;;;2.63;2.05;;;14.20;99.90;;;;;;5003037;28;20047;-75
2022/09/29 11:06:37;;;;;;;5.32;2.53;;;14.30;99.90;;;;;;5014802;28;20057;-76
2022/09/29 11:09:05;;;;;;;5.75;2.42;;;14.30;99.90;;;;;;5021394;28;20466;-76
2022/09/29 11:11:58;;;;;;;4.93;1.60;;;14.40;99.90;;;;;;5020122;28;20042;-74
2022/09/29 11:14:36;;;;;;;4.70;2.15;;;14.70;99.90;;;;;;5015461;28;20121;-72
2022/09/29 11:17:26;;;;;;;3.50;1.88;;;14.80;99.90;;;;;;5003666;28;20050;-76
2022/09/29 11:19:58;;;;;;;5.63;1.70;;;14.80;99.90;;;;;;5005833;28;20055;-75
2022/09/29 11:22:48;;;;;;;4.25;1.33;;;14.80;99.90;;;;;;5021454;28;20392;-76
2022/09/29 11:25:38;;;;;;;3.78;1.42;;;15.00;99.90;;;;;;5014453;28;20068;-76
2022/09/29 11:28:46;;;;;;;2.35;1.50;;;14.90;99.90;;;;;;5022799;28;20373;-74
2022/09/29 11:31:20;;;;;;;1.88;1.45;;;15.00;99.90;;;;;;5010429;28;20124;-75
2022/09/29 11:34:14;;;;;;;2.95;1.23;;;15.20;99.90;;;;;;5023373;28;20053;-76
2022/09/29 11:37:06;;;;;;;1.92;1.15;;;15.10;99.90;;;;;;5021647;28;20037;-75
2022/09/29 11:39:49;;;;;;;2.28;1.35;;;15.20;99.90;;;;;;5009000;28;20403;-74
2022/09/29 11:42:31;;;;;;;3.38;1.23;;;15.20;99.90;;;;;;5010726;28;20495;-74
2022/09/29 11:44:58;;;;;;;1.92;1.52;;;15.30;99.90;;;;;;5020753;28;20162;-74
2022/09/29 11:47:56;;;;;;;1.75;1.40;;;15.20;99.90;;;;;;5021721;28;20042;-72
2022/09/29 11:50:51;;;;;;;5.00;1.90;;;15.10;99.90;;;;;;5000728;28;20468;-75
2022/09/29 11:53:58;;;;;;;1.52;1.02;;;15.30;99.90;;;;;;5007226;28;20925;-75
2022/09/29 11:56:30;;;;;;;1.75;0.63;;;15.30;99.90;;;;;;4985885;28;20061;-75
2022/09/29 11:59:20;;;;;;;1.60;0.77;;;15.40;99.90;;;;;;5009064;28;20046;-75
2022/09/29 12:01:50;;;;;;;1.73;1.15;;;15.50;99.90;;;;;;5016185;28;20038;-73
2022/09/29 12:04:29;;;;;;;2.83;0.90;;;15.50;99.90;;;;;;5022383;28;20053;-73
2022/09/29 12:07:26;;;;;;;1.87;0.80;;;15.40;99.90;;;;;;5014086;28;20046;-75
2022/09/29 12:10:16;;;;;;;1.77;0.80;;;15.60;99.90;;;;;;5018899;28;20312;-77
2022/09/29 12:13:08;;;;;;;3.80;1.30;;;15.50;99.90;;;;;;5022885;28;20049;-74
2022/09/29 12:15:53;;;;;;;1.10;1.00;;;15.70;99.90;;;;;;5010187;28;20120;-77
2022/09/29 12:18:56;;;;;;;1.38;1.00;;;15.80;99.90;;;;;;5019134;28;20507;-74
2022/09/29 12:21:40;;;;;;;1.05;0.80;;;15.80;99.90;;;;;;5008462;28;20161;-74
2022/09/29 12:24:14;;;;;;;2.13;1.00;;;16.00;99.90;;;;;;5017627;28;20041;-75
2022/09/29 12:26:41;;;;;;;1.05;0.75;;;15.80;99.90;;;;;;5010228;28;20090;-76
2022/09/29 12:29:21;;;;;;;2.28;0.70;;;15.60;99.90;;;;;;5011735;28;20527;-74
2022/09/29 12:31:50;;;;;;;0.40;0.35;;;15.40;99.90;;;;;;5006102;28;20499;-71
2022/09/29 12:34:28;;;;;;;1.05;0.68;;;15.70;99.90;;;;;;5004868;28;20104;-77
2022/09/29 12:37:01;;;;;;;1.63;1.00;;;15.60;99.90;;;;;;5009099;28;20121;-74
2022/09/29 12:39:39;;;;;;;1.02;0.82;;;15.40;99.90;;;;;;5016184;28;20102;-74
2022/09/29 12:42:22;;;;;;;0.77;0.50;;;15.20;99.90;;;;;;5021914;28;20041;-76
2022/09/29 12:45:23;;;;;;;3.00;1.30;;;15.10;99.90;;;;;;5026040;28;20547;-74
2022/09/29 12:48:04;;;;;;;0.50;0.30;;;15.00;99.90;;;;;;5019691;28;20741;-76
2022/09/29 12:50:38;;;;;;;0.90;0.52;;;15.00;99.90;;;;;;5003851;28;20049;-75
2022/09/29 12:53:23;;;;;;;0.60;0.40;;;14.80;99.90;;;;;;5020320;28;20411;-76
2022/09/29 12:56:21;;;;;;;2.33;0.70;;;14.70;99.90;;;;;;5016294;28;20508;-74
2022/09/29 12:58:58;;;;;;;1.95;0.50;;;14.70;99.90;;;;;;5019656;28;20385;-76
2022/09/29 13:01:35;;;;;;;0.75;0.43;;;14.50;99.90;;;;;;5025798;28;20091;-76
2022/09/29 13:04:49;;;;;;;0.35;0.25;;;14.40;99.90;;;;;;5019696;28;20633;-76
2022/09/29 13:07:17;;;;;;;0.98;0.40;;;14.30;99.90;;;;;;5024143;28;20057;-74
2022/09/29 13:10:24;;;;;;;0.63;0.40;;;14.30;99.90;;;;;;5025148;28;20081;-75
2022/09/29 13:13:02;;;;;;;4.22;0.57;;;14.20;99.90;;;;;;5004208;28;20053;-77
2022/09/29 13:15:55;;;;;;;1.55;0.40;;;14.10;99.90;;;;;;5023587;28;20048;-74
2022/09/29 13:19:09;;;;;;;0.60;0.50;;;14.00;99.90;;;;;;5008246;28;20136;-75
2022/09/29 13:21:53;;;;;;;1.45;0.80;;;13.80;99.90;;;;;;5022373;28;20065;-76